sensor_id;sensor_type;location;lat;lon;timestamp;pressure;altitude;pressure_sealevel;temperature;humidity
52651;BME280;38537;47.226;39.702;2023-02-12T00:01:24;101264.47;;;3.53;47.77
52651;BME280;38537;47.226;39.702;2023-02-12T00:03:51;101244.53;;;3.39;47.77
52651;BME280;38537;47.226;39.702;2023-02-12T00:06:19;101250.06;;;3.51;47.89
52651;BME280;38537;47.226;39.702;2023-02-12T00:08:50;101235.19;;;3.63;47.49
52651;BME280;38537;47.226;39.702;2023-02-12T00:11:24;101257.00;;;3.53;46.94
52651;BME280;38537;47.226;39.702;2023-02-12T00:13:56;101196.28;;;3.30;47.47
52651;BME280;38537;47.226;39.702;2023-02-12T00:16:26;101217.78;;;3.39;47.47
52651;BME280;38537;47.226;39.702;2023-02-12T00:19:00;101196.91;;;3.20;47.58
52651;BME280;38537;47.226;39.702;2023-02-12T00:21:37;101208.78;;;3.44;47.92
52651;BME280;38537;47.226;39.702;2023-02-12T00:24:04;101207.69;;;3.57;48.08
52651;BME280;38537;47.226;39.702;2023-02-12T00:26:32;101219.50;;;3.92;47.04
52651;BME280;38537;47.226;39.702;2023-02-12T00:29:06;101219.66;;;3.74;46.91
52651;BME280;38537;47.226;39.702;2023-02-12T00:31:33;101217.06;;;3.44;47.51
52651;BME280;38537;47.226;39.702;2023-02-12T00:34:01;101227.00;;;3.33;47.37
52651;BME280;38537;47.226;39.702;2023-02-12T00:36:30;101222.13;;;2.82;47.64
52651;BME280;38537;47.226;39.702;2023-02-12T00:38:59;101234.06;;;2.64;48.85
52651;BME280;38537;47.226;39.702;2023-02-12T00:41:26;101226.50;;;2.30;48.95
52651;BME280;38537;47.226;39.702;2023-02-12T00:43:55;101225.03;;;2.16;49.31
52651;BME280;38537;47.226;39.702;2023-02-12T00:46:22;101209.81;;;1.95;50.28
52651;BME280;38537;47.226;39.702;2023-02-12T00:48:50;101196.88;;;1.77;50.67
52651;BME280;38537;47.226;39.702;2023-02-12T00:51:19;101198.94;;;1.82;50.57
52651;BME280;38537;47.226;39.702;2023-02-12T00:53:46;101190.91;;;1.80;50.76
52651;BME280;38537;47.226;39.702;2023-02-12T00:56:14;101181.06;;;1.73;50.90
52651;BME280;38537;47.226;39.702;2023-02-12T00:58:46;101181.66;;;1.75;50.76
52651;BME280;38537;47.226;39.702;2023-02-12T01:01:17;101177.84;;;1.76;51.41
52651;BME280;38537;47.226;39.702;2023-02-12T01:03:44;101179.22;;;1.85;51.56
52651;BME280;38537;47.226;39.702;2023-02-12T01:06:11;101175.75;;;2.08;51.46
52651;BME280;38537;47.226;39.702;2023-02-12T01:08:38;101168.75;;;1.93;50.99
52651;BME280;38537;47.226;39.702;2023-02-12T01:11:11;101155.91;;;1.87;51.35
52651;BME280;38537;47.226;39.702;2023-02-12T01:13:39;101157.13;;;1.91;51.16
52651;BME280;38537;47.226;39.702;2023-02-12T01:16:24;101147.41;;;1.89;51.79
52651;BME280;38537;47.226;39.702;2023-02-12T01:18:53;101153.56;;;1.73;51.18
52651;BME280;38537;47.226;39.702;2023-02-12T01:21:24;101156.38;;;1.66;52.33
52651;BME280;38537;47.226;39.702;2023-02-12T01:23:54;101142.16;;;1.51;52.43
52651;BME280;38537;47.226;39.702;2023-02-12T01:26:22;101129.63;;;1.36;52.81
52651;BME280;38537;47.226;39.702;2023-02-12T01:28:55;101133.03;;;1.32;52.94
52651;BME280;38537;47.226;39.702;2023-02-12T01:31:25;101132.38;;;1.36;53.32
52651;BME280;38537;47.226;39.702;2023-02-12T01:33:57;101128.31;;;1.39;53.07
52651;BME280;38537;47.226;39.702;2023-02-12T01:36:25;101118.94;;;1.28;52.90
52651;BME280;38537;47.226;39.702;2023-02-12T01:38:53;101137.41;;;1.40;53.31
52651;BME280;38537;47.226;39.702;2023-02-12T01:41:25;101145.84;;;1.45;53.13
52651;BME280;38537;47.226;39.702;2023-02-12T01:44:16;101149.31;;;1.52;53.55
52651;BME280;38537;47.226;39.702;2023-02-12T01:46:46;101117.09;;;1.22;53.48
52651;BME280;38537;47.226;39.702;2023-02-12T01:49:25;101139.69;;;1.61;53.67
52651;BME280;38537;47.226;39.702;2023-02-12T01:51:59;101126.72;;;1.68;53.53
52651;BME280;38537;47.226;39.702;2023-02-12T01:54:28;101132.97;;;2.05;52.94
52651;BME280;38537;47.226;39.702;2023-02-12T01:56:58;101137.72;;;2.28;53.06
52651;BME280;38537;47.226;39.702;2023-02-12T01:59:26;101128.69;;;2.62;52.52
52651;BME280;38537;47.226;39.702;2023-02-12T02:01:54;101119.97;;;2.65;52.17
52651;BME280;38537;47.226;39.702;2023-02-12T02:04:26;101124.25;;;2.61;52.07
52651;BME280;38537;47.226;39.702;2023-02-12T02:07:01;101128.31;;;2.47;52.24
52651;BME280;38537;47.226;39.702;2023-02-12T02:09:30;101124.38;;;2.55;52.64
52651;BME280;38537;47.226;39.702;2023-02-12T02:12:00;101118.03;;;2.54;52.01
52651;BME280;38537;47.226;39.702;2023-02-12T02:14:47;101110.28;;;2.74;52.20
52651;BME280;38537;47.226;39.702;2023-02-12T02:33:53;101099.00;;;2.76;52.42
52651;BME280;38537;47.226;39.702;2023-02-12T02:37:30;101095.03;;;2.72;52.94
52651;BME280;38537;47.226;39.702;2023-02-12T02:39:36;101084.84;;;2.72;52.76
52651;BME280;38537;47.226;39.702;2023-02-12T02:47:55;101053.06;;;2.70;52.59
52651;BME280;38537;47.226;39.702;2023-02-12T02:50:25;101053.22;;;2.75;52.80
52651;BME280;38537;47.226;39.702;2023-02-12T02:53:13;101075.25;;;2.98;53.30
52651;BME280;38537;47.226;39.702;2023-02-12T02:55:48;101063.00;;;2.83;52.45
52651;BME280;38537;47.226;39.702;2023-02-12T02:58:23;101052.72;;;2.90;52.89
52651;BME280;38537;47.226;39.702;2023-02-12T03:01:10;101046.25;;;2.96;52.09
52651;BME280;38537;47.226;39.702;2023-02-12T03:03:52;101054.47;;;3.19;52.23
52651;BME280;38537;47.226;39.702;2023-02-12T03:09:34;101051.13;;;3.17;52.67
52651;BME280;38537;47.226;39.702;2023-02-12T03:12:15;101046.69;;;3.16;51.95
52651;BME280;38537;47.226;39.702;2023-02-12T03:14:48;101043.69;;;3.06;51.98
52651;BME280;38537;47.226;39.702;2023-02-12T03:17:25;101052.16;;;3.39;51.97
52651;BME280;38537;47.226;39.702;2023-02-12T03:19:59;101041.00;;;3.34;51.92
52651;BME280;38537;47.226;39.702;2023-02-12T03:22:35;101021.19;;;3.37;52.31
52651;BME280;38537;47.226;39.702;2023-02-12T03:25:14;101019.72;;;3.47;51.71
52651;BME280;38537;47.226;39.702;2023-02-12T03:27:46;101018.56;;;3.31;51.68
52651;BME280;38537;47.226;39.702;2023-02-12T03:30:15;101035.00;;;3.26;51.74
52651;BME280;38537;47.226;39.702;2023-02-12T03:32:56;101019.28;;;3.26;52.50
52651;BME280;38537;47.226;39.702;2023-02-12T03:35:36;101033.13;;;3.55;52.33
52651;BME280;38537;47.226;39.702;2023-02-12T03:38:22;101013.13;;;3.76;51.40
52651;BME280;38537;47.226;39.702;2023-02-12T03:41:40;101007.84;;;3.91;51.35
52651;BME280;38537;47.226;39.702;2023-02-12T03:47:47;101012.00;;;4.05;51.25
52651;BME280;38537;47.226;39.702;2023-02-12T03:50:32;101008.91;;;4.02;51.08
52651;BME280;38537;47.226;39.702;2023-02-12T03:53:04;101010.00;;;4.18;50.64
52651;BME280;38537;47.226;39.702;2023-02-12T03:55:35;100997.28;;;4.50;50.81
52651;BME280;38537;47.226;39.702;2023-02-12T03:58:08;100980.19;;;4.53;50.00
52651;BME280;38537;47.226;39.702;2023-02-12T04:00:38;100989.78;;;4.67;49.70
52651;BME280;38537;47.226;39.702;2023-02-12T04:03:06;100986.00;;;4.57;49.74
52651;BME280;38537;47.226;39.702;2023-02-12T04:05:33;100972.59;;;4.65;49.74
52651;BME280;38537;47.226;39.702;2023-02-12T04:08:01;100978.94;;;4.82;49.87
52651;BME280;38537;47.226;39.702;2023-02-12T04:13:10;100978.59;;;4.79;50.24
52651;BME280;38537;47.226;39.702;2023-02-12T04:29:38;100970.34;;;4.62;49.84
52651;BME280;38537;47.226;39.702;2023-02-12T04:32:27;100964.47;;;4.75;50.57
52651;BME280;38537;47.226;39.702;2023-02-12T04:35:09;100961.31;;;4.50;50.05
52651;BME280;38537;47.226;39.702;2023-02-12T04:37:41;100964.13;;;4.55;51.00
52651;BME280;38537;47.226;39.702;2023-02-12T04:40:16;100955.47;;;4.30;50.41
52651;BME280;38537;47.226;39.702;2023-02-12T04:42:46;100973.06;;;4.40;50.51
52651;BME280;38537;47.226;39.702;2023-02-12T04:45:19;100969.81;;;4.27;51.09
52651;BME280;38537;47.226;39.702;2023-02-12T04:47:47;100968.53;;;4.18;50.85
52651;BME280;38537;47.226;39.702;2023-02-12T04:50:14;100958.56;;;4.00;51.49
52651;BME280;38537;47.226;39.702;2023-02-12T04:52:41;100968.69;;;3.94;51.16
52651;BME280;38537;47.226;39.702;2023-02-12T04:55:09;100966.72;;;3.61;51.66
52651;BME280;38537;47.226;39.702;2023-02-12T04:57:36;100933.63;;;3.50;52.05
52651;BME280;38537;47.226;39.702;2023-02-12T05:00:05;100954.34;;;3.64;52.75
52651;BME280;38537;47.226;39.702;2023-02-12T05:02:35;100944.78;;;3.55;52.90
52651;BME280;38537;47.226;39.702;2023-02-12T05:05:02;100962.38;;;3.65;52.61
52651;BME280;38537;47.226;39.702;2023-02-12T05:07:30;100952.97;;;3.50;52.49
52651;BME280;38537;47.226;39.702;2023-02-12T05:09:57;100957.59;;;3.32;53.27
52651;BME280;38537;47.226;39.702;2023-02-12T05:12:24;100955.78;;;3.38;53.17
52651;BME280;38537;47.226;39.702;2023-02-12T05:14:51;100964.34;;;3.53;53.33
52651;BME280;38537;47.226;39.702;2023-02-12T05:17:21;100947.38;;;3.44;53.56
52651;BME280;38537;47.226;39.702;2023-02-12T05:19:49;100931.06;;;3.43;53.38
52651;BME280;38537;47.226;39.702;2023-02-12T05:22:16;100954.78;;;3.72;53.37
52651;BME280;38537;47.226;39.702;2023-02-12T05:24:43;100937.47;;;3.94;52.37
52651;BME280;38537;47.226;39.702;2023-02-12T05:27:11;100931.28;;;4.03;52.83
52651;BME280;38537;47.226;39.702;2023-02-12T05:29:39;100934.88;;;4.04;52.31
52651;BME280;38537;47.226;39.702;2023-02-12T05:32:06;100944.00;;;4.04;52.90
52651;BME280;38537;47.226;39.702;2023-02-12T05:34:34;100925.56;;;3.93;52.81
52651;BME280;38537;47.226;39.702;2023-02-12T05:37:01;100942.47;;;4.13;52.71
52651;BME280;38537;47.226;39.702;2023-02-12T05:39:28;100928.53;;;4.03;52.80
52651;BME280;38537;47.226;39.702;2023-02-12T05:41:56;100926.34;;;3.89;53.03
52651;BME280;38537;47.226;39.702;2023-02-12T05:44:23;100936.56;;;3.88;53.63
52651;BME280;38537;47.226;39.702;2023-02-12T05:46:50;100951.47;;;3.87;53.74
52651;BME280;38537;47.226;39.702;2023-02-12T05:49:17;100928.72;;;3.68;53.71
52651;BME280;38537;47.226;39.702;2023-02-12T05:51:44;100935.19;;;3.74;54.03
52651;BME280;38537;47.226;39.702;2023-02-12T05:54:12;100918.34;;;3.59;54.00
52651;BME280;38537;47.226;39.702;2023-02-12T05:56:45;100927.84;;;3.96;54.70
52651;BME280;38537;47.226;39.702;2023-02-12T05:59:18;100927.31;;;4.16;53.49
52651;BME280;38537;47.226;39.702;2023-02-12T06:01:47;100916.19;;;4.28;53.13
52651;BME280;38537;47.226;39.702;2023-02-12T06:04:20;100921.03;;;4.37;53.02
52651;BME280;38537;47.226;39.702;2023-02-12T06:06:50;100920.47;;;4.57;53.22
52651;BME280;38537;47.226;39.702;2023-02-12T06:09:18;100927.13;;;4.78;52.67
52651;BME280;38537;47.226;39.702;2023-02-12T06:11:45;100908.72;;;5.10;51.97
52651;BME280;38537;47.226;39.702;2023-02-12T06:14:15;100893.50;;;5.62;51.41
52651;BME280;38537;47.226;39.702;2023-02-12T06:16:44;100904.91;;;5.97;51.09
52651;BME280;38537;47.226;39.702;2023-02-12T06:19:12;100889.75;;;6.05;50.23
52651;BME280;38537;47.226;39.702;2023-02-12T06:21:40;100891.22;;;6.17;49.74
52651;BME280;38537;47.226;39.702;2023-02-12T06:24:09;100885.47;;;6.29;49.73
52651;BME280;38537;47.226;39.702;2023-02-12T06:26:37;100895.97;;;6.22;49.96
52651;BME280;38537;47.226;39.702;2023-02-12T06:29:04;100889.97;;;5.98;50.65
52651;BME280;38537;47.226;39.702;2023-02-12T06:31:33;100889.50;;;6.11;50.45
52651;BME280;38537;47.226;39.702;2023-02-12T06:34:04;100900.28;;;6.50;49.58
52651;BME280;38537;47.226;39.702;2023-02-12T06:36:31;100894.09;;;6.85;49.40
52651;BME280;38537;47.226;39.702;2023-02-12T06:39:00;100883.34;;;7.04;48.59
52651;BME280;38537;47.226;39.702;2023-02-12T06:41:29;100870.56;;;7.03;48.79
52651;BME280;38537;47.226;39.702;2023-02-12T06:43:56;100857.84;;;7.12;48.31
52651;BME280;38537;47.226;39.702;2023-02-12T06:46:24;100883.16;;;7.31;48.33
52651;BME280;38537;47.226;39.702;2023-02-12T06:48:53;100867.34;;;7.41;48.54
52651;BME280;38537;47.226;39.702;2023-02-12T06:51:21;100857.09;;;7.57;47.83
52651;BME280;38537;47.226;39.702;2023-02-12T06:53:50;100870.16;;;7.67;47.73
52651;BME280;38537;47.226;39.702;2023-02-12T06:56:19;100854.88;;;7.64;47.32
52651;BME280;38537;47.226;39.702;2023-02-12T06:58:52;100858.19;;;7.51;47.47
52651;BME280;38537;47.226;39.702;2023-02-12T07:01:23;100830.94;;;7.58;47.65
52651;BME280;38537;47.226;39.702;2023-02-12T07:03:56;100858.47;;;7.80;47.51
52651;BME280;38537;47.226;39.702;2023-02-12T07:06:24;100842.38;;;7.87;47.10
52651;BME280;38537;47.226;39.702;2023-02-12T07:08:53;100855.72;;;8.00;46.95
52651;BME280;38537;47.226;39.702;2023-02-12T07:11:30;100852.94;;;7.85;47.09
52651;BME280;38537;47.226;39.702;2023-02-12T07:13:58;100848.47;;;7.84;47.08
52651;BME280;38537;47.226;39.702;2023-02-12T07:16:25;100838.47;;;7.63;47.26
52651;BME280;38537;47.226;39.702;2023-02-12T07:18:52;100838.22;;;7.74;47.51
52651;BME280;38537;47.226;39.702;2023-02-12T07:21:20;100830.13;;;7.83;46.87
52651;BME280;38537;47.226;39.702;2023-02-12T07:23:49;100821.81;;;7.78;46.99
52651;BME280;38537;47.226;39.702;2023-02-12T07:26:18;100815.13;;;7.58;47.16
52651;BME280;38537;47.226;39.702;2023-02-12T07:28:46;100827.91;;;7.44;47.65
52651;BME280;38537;47.226;39.702;2023-02-12T07:31:19;100825.38;;;7.28;47.85
52651;BME280;38537;47.226;39.702;2023-02-12T07:33:51;100815.94;;;7.29;47.88
52651;BME280;38537;47.226;39.702;2023-02-12T07:36:19;100820.09;;;7.26;48.07
52651;BME280;38537;47.226;39.702;2023-02-12T07:38:47;100795.91;;;7.06;48.38
52651;BME280;38537;47.226;39.702;2023-02-12T07:41:25;100779.22;;;7.01;48.17
52651;BME280;38537;47.226;39.702;2023-02-12T07:43:58;100809.28;;;7.30;48.15
52651;BME280;38537;47.226;39.702;2023-02-12T07:46:29;100791.78;;;7.39;48.53
52651;BME280;38537;47.226;39.702;2023-02-12T07:49:02;100772.53;;;6.87;48.04
52651;BME280;38537;47.226;39.702;2023-02-12T07:51:33;100778.38;;;6.91;48.36
52651;BME280;38537;47.226;39.702;2023-02-12T07:54:01;100791.47;;;7.05;48.35
52651;BME280;38537;47.226;39.702;2023-02-12T07:56:32;100784.50;;;6.93;48.76
52651;BME280;38537;47.226;39.702;2023-02-12T07:59:03;100788.09;;;6.98;48.79
52651;BME280;38537;47.226;39.702;2023-02-12T08:01:33;100797.84;;;7.16;48.61
52651;BME280;38537;47.226;39.702;2023-02-12T08:04:07;100790.63;;;7.15;48.06
52651;BME280;38537;47.226;39.702;2023-02-12T08:06:37;100792.06;;;7.48;48.21
52651;BME280;38537;47.226;39.702;2023-02-12T08:09:06;100782.59;;;7.59;47.79
52651;BME280;38537;47.226;39.702;2023-02-12T08:11:36;100794.53;;;7.95;47.22
52651;BME280;38537;47.226;39.702;2023-02-12T08:14:04;100784.25;;;8.01;47.05
52651;BME280;38537;47.226;39.702;2023-02-12T08:16:36;100765.19;;;8.53;46.15
52651;BME280;38537;47.226;39.702;2023-02-12T08:19:04;100779.31;;;8.67;46.14
52651;BME280;38537;47.226;39.702;2023-02-12T08:21:48;100797.28;;;8.95;45.46
52651;BME280;38537;47.226;39.702;2023-02-12T08:24:16;100771.34;;;9.00;45.48
52651;BME280;38537;47.226;39.702;2023-02-12T08:26:54;100770.78;;;9.03;45.35
52651;BME280;38537;47.226;39.702;2023-02-12T08:29:24;100787.94;;;9.20;45.26
52651;BME280;38537;47.226;39.702;2023-02-12T08:32:00;100782.34;;;9.20;45.23
52651;BME280;38537;47.226;39.702;2023-02-12T08:34:29;100772.06;;;9.15;45.66
52651;BME280;38537;47.226;39.702;2023-02-12T08:36:57;100783.22;;;9.15;45.66
52651;BME280;38537;47.226;39.702;2023-02-12T08:39:27;100770.47;;;9.09;46.01
52651;BME280;38537;47.226;39.702;2023-02-12T08:41:55;100769.09;;;9.02;46.18
52651;BME280;38537;47.226;39.702;2023-02-12T08:44:23;100771.47;;;9.23;46.08
52651;BME280;38537;47.226;39.702;2023-02-12T08:46:51;100780.63;;;9.29;46.21
52651;BME280;38537;47.226;39.702;2023-02-12T08:49:21;100776.47;;;9.26;46.28
52651;BME280;38537;47.226;39.702;2023-02-12T08:51:51;100769.53;;;9.19;46.48
52651;BME280;38537;47.226;39.702;2023-02-12T08:54:20;100773.59;;;8.98;47.11
52651;BME280;38537;47.226;39.702;2023-02-12T08:56:48;100740.00;;;8.79;47.40
52651;BME280;38537;47.226;39.702;2023-02-12T08:59:16;100752.41;;;8.97;47.44
52651;BME280;38537;47.226;39.702;2023-02-12T09:01:44;100752.97;;;8.99;47.36
52651;BME280;38537;47.226;39.702;2023-02-12T09:04:16;100728.56;;;8.85;47.87
52651;BME280;38537;47.226;39.702;2023-02-12T09:06:45;100744.47;;;8.80;47.99
52651;BME280;38537;47.226;39.702;2023-02-12T09:09:13;100732.59;;;8.59;48.11
52651;BME280;38537;47.226;39.702;2023-02-12T09:11:41;100734.09;;;8.36;48.74
52651;BME280;38537;47.226;39.702;2023-02-12T09:14:11;100728.81;;;8.24;49.17
52651;BME280;38537;47.226;39.702;2023-02-12T09:16:39;100724.16;;;8.05;49.10
52651;BME280;38537;47.226;39.702;2023-02-12T09:19:08;100730.88;;;7.94;49.88
52651;BME280;38537;47.226;39.702;2023-02-12T09:21:35;100712.00;;;7.75;49.67
52651;BME280;38537;47.226;39.702;2023-02-12T09:24:02;100728.72;;;7.55;50.63
52651;BME280;38537;47.226;39.702;2023-02-12T09:26:30;100689.53;;;7.41;50.37
52651;BME280;38537;47.226;39.702;2023-02-12T09:28:57;100703.44;;;7.51;50.44
52651;BME280;38537;47.226;39.702;2023-02-12T09:31:29;100711.19;;;7.75;50.61
52651;BME280;38537;47.226;39.702;2023-02-12T09:34:01;100703.06;;;7.94;49.88
52651;BME280;38537;47.226;39.702;2023-02-12T09:36:29;100684.91;;;8.16;49.73
52651;BME280;38537;47.226;39.702;2023-02-12T09:38:57;100669.56;;;8.34;49.41
52651;BME280;38537;47.226;39.702;2023-02-12T09:44:32;100680.41;;;8.80;48.64
52651;BME280;38537;47.226;39.702;2023-02-12T09:47:16;100674.84;;;8.80;48.81
52651;BME280;38537;47.226;39.702;2023-02-12T09:50:26;100682.41;;;8.69;48.82
52651;BME280;38537;47.226;39.702;2023-02-12T09:52:55;100678.91;;;8.53;49.52
52651;BME280;38537;47.226;39.702;2023-02-12T09:55:28;100658.13;;;8.36;49.77
52651;BME280;38537;47.226;39.702;2023-02-12T09:57:56;100669.25;;;8.41;49.82
52651;BME280;38537;47.226;39.702;2023-02-12T10:00:28;100670.38;;;8.40;49.50
52651;BME280;38537;47.226;39.702;2023-02-12T10:03:02;100650.06;;;8.34;50.02
52651;BME280;38537;47.226;39.702;2023-02-12T10:05:37;100651.91;;;8.54;49.86
52651;BME280;38537;47.226;39.702;2023-02-12T10:10:46;100654.25;;;8.76;49.49
52651;BME280;38537;47.226;39.702;2023-02-12T10:16:12;100633.34;;;8.83;49.64
52651;BME280;38537;47.226;39.702;2023-02-12T10:18:47;100626.19;;;8.67;49.95
52651;BME280;38537;47.226;39.702;2023-02-12T10:23:59;100630.66;;;8.68;49.87
52651;BME280;38537;47.226;39.702;2023-02-12T10:26:37;100644.53;;;8.73;49.88
52651;BME280;38537;47.226;39.702;2023-02-12T10:29:25;100616.75;;;9.02;49.44
52651;BME280;38537;47.226;39.702;2023-02-12T10:32:09;100625.09;;;9.02;49.42
52651;BME280;38537;47.226;39.702;2023-02-12T10:34:40;100618.13;;;9.05;49.50
52651;BME280;38537;47.226;39.702;2023-02-12T10:37:42;100646.16;;;8.84;49.77
52651;BME280;38537;47.226;39.702;2023-02-12T10:40:30;100611.81;;;8.55;50.31
52651;BME280;38537;47.226;39.702;2023-02-12T10:43:01;100620.59;;;8.72;50.05
52651;BME280;38537;47.226;39.702;2023-02-12T10:45:35;100629.09;;;8.91;49.76
52651;BME280;38537;47.226;39.702;2023-02-12T10:48:12;100597.97;;;9.13;49.55
52651;BME280;38537;47.226;39.702;2023-02-12T10:53:23;100613.88;;;8.78;50.06
52651;BME280;38537;47.226;39.702;2023-02-12T10:58:50;100592.03;;;8.90;49.92
52651;BME280;38537;47.226;39.702;2023-02-12T11:01:32;100589.25;;;8.90;49.94
52651;BME280;38537;47.226;39.702;2023-02-12T11:07:09;100587.78;;;9.03;49.51
52651;BME280;38537;47.226;39.702;2023-02-12T11:09:45;100586.66;;;9.04;49.62
52651;BME280;38537;47.226;39.702;2023-02-12T11:12:32;100584.63;;;9.10;49.57
52651;BME280;38537;47.226;39.702;2023-02-12T11:15:14;100578.63;;;8.98;49.76
52651;BME280;38537;47.226;39.702;2023-02-12T11:17:45;100544.13;;;8.93;49.65
52651;BME280;38537;47.226;39.702;2023-02-12T11:23:23;100577.16;;;8.76;50.38
52651;BME280;38537;47.226;39.702;2023-02-12T11:29:22;100555.16;;;8.41;51.10
52651;BME280;38537;47.226;39.702;2023-02-12T11:32:04;100565.22;;;8.26;51.63
52651;BME280;38537;47.226;39.702;2023-02-12T11:34:35;100571.81;;;8.46;50.91
52651;BME280;38537;47.226;39.702;2023-02-12T11:37:03;100562.59;;;8.50;51.05
52651;BME280;38537;47.226;39.702;2023-02-12T11:39:37;100541.28;;;8.70;50.68
52651;BME280;38537;47.226;39.702;2023-02-12T11:42:16;100547.38;;;8.72;50.52
52651;BME280;38537;47.226;39.702;2023-02-12T11:44:50;100562.13;;;8.72;50.77
52651;BME280;38537;47.226;39.702;2023-02-12T11:47:20;100531.78;;;8.76;50.63
52651;BME280;38537;47.226;39.702;2023-02-12T11:49:56;100551.34;;;8.94;50.06
52651;BME280;38537;47.226;39.702;2023-02-12T11:52:27;100555.81;;;8.96;50.23
52651;BME280;38537;47.226;39.702;2023-02-12T11:55:05;100545.09;;;8.79;50.69
52651;BME280;38537;47.226;39.702;2023-02-12T12:12:07;100523.75;;;8.98;50.39
52651;BME280;38537;47.226;39.702;2023-02-12T12:14:54;100522.88;;;8.74;50.92
52651;BME280;38537;47.226;39.702;2023-02-12T12:21:33;100495.22;;;8.53;51.24
52651;BME280;38537;47.226;39.702;2023-02-12T12:24:19;100525.84;;;8.53;51.10
52651;BME280;38537;47.226;39.702;2023-02-12T12:26:54;100506.78;;;8.37;51.19
52651;BME280;38537;47.226;39.702;2023-02-12T12:32:02;100513.59;;;8.10;51.90
52651;BME280;38537;47.226;39.702;2023-02-12T12:34:31;100529.19;;;8.06;52.20
52651;BME280;38537;47.226;39.702;2023-02-12T12:40:18;100519.28;;;7.95;52.28
52651;BME280;38537;47.226;39.702;2023-02-12T12:43:10;100513.94;;;7.49;53.16
52651;BME280;38537;47.226;39.702;2023-02-12T12:46:03;100525.91;;;7.50;53.43
52651;BME280;38537;47.226;39.702;2023-02-12T12:52:02;100531.78;;;7.33;53.95
52651;BME280;38537;47.226;39.702;2023-02-12T13:08:48;100545.91;;;7.37;54.17
52651;BME280;38537;47.226;39.702;2023-02-12T13:17:09;100538.03;;;6.64;55.59
52651;BME280;38537;47.226;39.702;2023-02-12T13:19:54;100546.06;;;6.66;55.71
52651;BME280;38537;47.226;39.702;2023-02-12T13:28:21;100540.50;;;6.86;54.97
52651;BME280;38537;47.226;39.702;2023-02-12T13:30:52;100535.19;;;7.05;55.00
52651;BME280;38537;47.226;39.702;2023-02-12T13:33:25;100546.34;;;6.84;54.84
52651;BME280;38537;47.226;39.702;2023-02-12T13:35:57;100525.25;;;6.88;55.18
52651;BME280;38537;47.226;39.702;2023-02-12T13:39:15;100546.84;;;7.02;55.33
52651;BME280;38537;47.226;39.702;2023-02-12T13:41:43;100521.63;;;6.83;54.85
52651;BME280;38537;47.226;39.702;2023-02-12T13:44:21;100538.84;;;6.54;55.67
52651;BME280;38537;47.226;39.702;2023-02-12T13:50:00;100554.91;;;5.44;57.70
52651;BME280;38537;47.226;39.702;2023-02-12T13:52:35;100549.78;;;5.16;58.54
52651;BME280;38537;47.226;39.702;2023-02-12T14:01:38;100569.72;;;4.44;61.98
52651;BME280;38537;47.226;39.702;2023-02-12T14:09:26;100583.94;;;3.77;63.11
52651;BME280;38537;47.226;39.702;2023-02-12T14:11:55;100569.38;;;3.82;62.67
52651;BME280;38537;47.226;39.702;2023-02-12T14:14:33;100581.84;;;3.84;63.91
52651;BME280;38537;47.226;39.702;2023-02-12T14:22:56;100597.31;;;3.85;63.78
52651;BME280;38537;47.226;39.702;2023-02-12T14:27:53;100605.13;;;3.50;63.69
52651;BME280;38537;47.226;39.702;2023-02-12T14:30:30;100608.78;;;3.33;65.08
52651;BME280;38537;47.226;39.702;2023-02-12T14:33:21;100611.09;;;3.20;66.32
52651;BME280;38537;47.226;39.702;2023-02-12T14:37:08;100615.94;;;3.13;66.70
52651;BME280;38537;47.226;39.702;2023-02-12T14:39:05;100602.56;;;3.04;66.63
52651;BME280;38537;47.226;39.702;2023-02-12T14:41:52;100625.16;;;3.01;66.08
52651;BME280;38537;47.226;39.702;2023-02-12T14:46:59;100608.41;;;3.08;67.11
52651;BME280;38537;47.226;39.702;2023-02-12T14:57:32;100600.91;;;2.87;67.03
52651;BME280;38537;47.226;39.702;2023-02-12T15:02:49;100608.09;;;2.88;66.42
52651;BME280;38537;47.226;39.702;2023-02-12T15:05:40;100655.72;;;3.17;67.87
52651;BME280;38537;47.226;39.702;2023-02-12T15:22:25;100676.72;;;3.01;67.68
52651;BME280;38537;47.226;39.702;2023-02-12T15:27:49;100688.66;;;2.90;67.35
52651;BME280;38537;47.226;39.702;2023-02-12T15:30:21;100672.47;;;2.77;67.28
52651;BME280;38537;47.226;39.702;2023-02-12T15:32:54;100692.41;;;2.84;67.37
52651;BME280;38537;47.226;39.702;2023-02-12T15:35:30;100702.69;;;2.88;67.51
52651;BME280;38537;47.226;39.702;2023-02-12T15:37:59;100683.81;;;2.80;67.54
52651;BME280;38537;47.226;39.702;2023-02-12T15:40:29;100719.94;;;3.12;67.16
52651;BME280;38537;47.226;39.702;2023-02-12T15:43:02;100708.81;;;3.07;66.39
52651;BME280;38537;47.226;39.702;2023-02-12T15:45:32;100717.50;;;2.99;66.10
52651;BME280;38537;47.226;39.702;2023-02-12T15:50:52;100720.66;;;2.74;66.09
52651;BME280;38537;47.226;39.702;2023-02-12T15:53:22;100706.19;;;2.67;65.82
52651;BME280;38537;47.226;39.702;2023-02-12T15:55:52;100728.97;;;2.62;66.02
52651;BME280;38537;47.226;39.702;2023-02-12T15:58:27;100701.63;;;2.44;66.16
52651;BME280;38537;47.226;39.702;2023-02-12T16:01:01;100735.00;;;2.59;66.20
52651;BME280;38537;47.226;39.702;2023-02-12T16:03:30;100751.28;;;2.61;65.86
52651;BME280;38537;47.226;39.702;2023-02-12T16:06:03;100723.97;;;2.31;65.78
52651;BME280;38537;47.226;39.702;2023-02-12T16:08:33;100725.59;;;2.03;66.83
52651;BME280;38537;47.226;39.702;2023-02-12T16:11:02;100727.72;;;1.73;66.94
52651;BME280;38537;47.226;39.702;2023-02-12T16:14:03;100752.00;;;1.64;68.10
52651;BME280;38537;47.226;39.702;2023-02-12T16:16:49;100763.59;;;1.31;68.41
52651;BME280;38537;47.226;39.702;2023-02-12T16:19:27;100740.63;;;1.14;68.45
52651;BME280;38537;47.226;39.702;2023-02-12T16:22:09;100755.06;;;1.10;69.02